Decoded Metar for KMLB (MELBOURNE in FL, USA) (IATA:MLB) | Meteo·Mobile Aviation Weather
aviador You're here:

KMLB Decoded Metar

MELBOURNE in FL, USA
Report Time2019-02-16 06:53:00
UTC Time2019-02-16 07:39:33
Flight Rules vfr VFR
Wind270° at 05 kt
W.Decomp.*RWY 27: 5.0 kt HW 0.6 kt RCW
RWY 23: 3.4 kt HW 3.7 kt RCW
W.Rank270° ranks 17
Current wind is below 270° avg. (6.9)
Visibility9999 m
Phenomena:N/A
Clouds:N/A
Expected CloudBase > 800 ft AGL from Temp-Dew spread
CeilingNone
Temp15°C (ISA 0)
Dew Point13°C (88% RH)
AAT14.1°C
QNH1013 hPa
Density Alt243 ft
Elevation36 ft
Report Wrong Elevation
Raw Report
METAR KMLB 160653Z AUTO 27005KT 10SM CLR 15/13 A2991 RMK AO2 SLP127
T01500133=

Extra information for KMLB:More info

Metar Taf Metar & Taf Last 4 Metars F.Rules Stats Wind Profile Meteogram Temp Stats Airport Information Weather charts Add Link Nearby VenuesMetar ALERT Operation Metar Decoded Social comments

AIRNAV info for KMLB